Sea Angel — WCZ2413 — position and weather

sailwx.info

Track history (hours):
 
Tides and Currents Weather Stations Pressure Air Temp Water Temp Dewpoint Dewpoint Depression Visibility Wind Speed Wind Dir Waves Ship Positions

Sea Angel

Owner: NOGGLE, CHARLES C, SNOHOMISH, WA. More information available from US FCC via Universal Licensing System and Coast Guard Vessel Documentation Center.

Last reported at 2018-May-25 08:08 UTC. Time now 2018-Jun-18 03:24 UTC.
Position N 54°28' W 130°40'.
Warning: this ship's position is 23 days out of date.

Length 14 m.

Type: Fishing. MMSI: 367403960.

Date/timePositionNaut miles runAvg speedWind from/ knotsBaromVisibWave heightAir tempDewpointWater temp
2018-May-25 08:08N 54°28' W 130°40'1 8.4
2018-May-25 08:00N 54°27' W 130°39'5 8.4
2018-May-25 07:27N 54°22' W 130°37'4 8.2
2018-May-25 07:00N 54°19' W 130°34'4 8.4
2018-May-25 06:30N 54°15' W 130°31'4 8.2
2018-May-25 06:00N 54°11' W 130°28'4 7.5
2018-May-25 05:30N 54°09' W 130°24'4 8.4
2018-May-25 05:00N 54°05' W 130°19'4 8.5
2018-May-25 04:30N 54°02' W 130°15'4 8.5
2018-May-25 04:00N 53°58' W 130°12'4 7.7
2018-May-25 03:30N 53°55' W 130°10'123 6.5
2018-May-24 08:32N 52°14' W 128°13'1 7.5
2018-May-24 08:26N 52°14' W 128°12'4 5.3
2018-May-24 07:35N 52°10' W 128°08'1 6.1
2018-May-24 07:27N 52°09' W 128°08'3 7.3
2018-May-24 07:00N 52°06' W 128°08'3 6.6
2018-May-24 06:30N 52°05' W 128°03'4 7.4
2018-May-24 05:57N 52°04' W 127°56'3 6.7
2018-May-24 05:30N 52°01' W 127°56'3 6.6
2018-May-24 05:00N 51°58' W 127°56'3 6.5
2018-May-24 04:30N 51°54' W 127°56'4 7.1
2018-May-24 04:00N 51°51' W 127°56'3 6.9
2018-May-24 03:30N 51°47' W 127°56'3 6.8
2018-May-24 03:00N 51°44' W 127°56'3 6.8
2018-May-24 02:30N 51°41' W 127°55'4 7.0
2018-May-24 02:00N 51°37' W 127°54'29 6.8
2018-May-23 21:47N 51°09' W 127°48'2 7.8
2018-May-23 21:28N 51°07' W 127°45'4 8.1
2018-May-23 20:58N 51°04' W 127°41'4 8.1
2018-May-23 20:30N 51°01' W 127°37'4 8.1
2018-May-23 20:00N 50°59' W 127°32'4 8.3
2018-May-23 19:30N 50°56' W 127°27'4 8.3
2018-May-23 18:58N 50°53' W 127°22'85 7.6
2018-May-23 07:50N 50°15' W 125°23'5 7.4
2018-May-23 07:13N 50°10' W 125°21'2 5.9
2018-May-23 06:58N 50°09' W 125°21'2 4.1
2018-May-23 06:30N 50°07' W 125°19'2 4.7
2018-May-23 06:00N 50°05' W 125°17'2 3.5
2018-May-23 05:30N 50°04' W 125°15'2 3.9
2018-May-23 04:54N 50°02' W 125°13'3 5.1
2018-May-23 04:19N 49°59' W 125°11'2 5.1
2018-May-23 04:00N 49°58' W 125°10'3 6.4
2018-May-23 03:29N 49°55' W 125°07'4 8.2
2018-May-23 02:56N 49°52' W 125°03'3 7.9
2018-May-23 02:30N 49°49' W 124°59'4 7.2
2018-May-23 02:00N 49°47' W 124°55'107 4.1
2018-May-22 00:09N 48°35' W 122°54'1 7.1
2018-May-22 00:00N 48°35' W 122°52'4 7.0
2018-May-21 23:28N 48°32' W 122°49'  
Track history (hours):
 
Tides and Currents Weather Stations Pressure Air Temp Water Temp Dewpoint Dewpoint Depression Visibility Wind Speed Wind Dir Waves Ship Positions

Sea Angel

Owner: NOGGLE, CHARLES C, SNOHOMISH, WA. More information available from US FCC via Universal Licensing System and Coast Guard Vessel Documentation Center.

Last reported at 2018-May-25 08:08 UTC. Time now 2018-Jun-18 03:24 UTC.
Position N 54°28' W 130°40'.
Warning: this ship's position is 23 days out of date.

Length 14 m.

Type: Fishing. MMSI: 367403960.

Date/timePositionNaut miles runAvg speedWind from/ knotsBaromVisibWave heightAir tempDewpointWater temp
2018-May-25 08:08N 54°28' W 130°40'1 8.4
2018-May-25 08:00N 54°27' W 130°39'5 8.4
2018-May-25 07:27N 54°22' W 130°37'4 8.2
2018-May-25 07:00N 54°19' W 130°34'4 8.4
2018-May-25 06:30N 54°15' W 130°31'4 8.2
2018-May-25 06:00N 54°11' W 130°28'4 7.5
2018-May-25 05:30N 54°09' W 130°24'4 8.4
2018-May-25 05:00N 54°05' W 130°19'4 8.5
2018-May-25 04:30N 54°02' W 130°15'4 8.5
2018-May-25 04:00N 53°58' W 130°12'4 7.7
2018-May-25 03:30N 53°55' W 130°10'123 6.5
2018-May-24 08:32N 52°14' W 128°13'1 7.5
2018-May-24 08:26N 52°14' W 128°12'4 5.3
2018-May-24 07:35N 52°10' W 128°08'1 6.1
2018-May-24 07:27N 52°09' W 128°08'3 7.3
2018-May-24 07:00N 52°06' W 128°08'3 6.6
2018-May-24 06:30N 52°05' W 128°03'4 7.4
2018-May-24 05:57N 52°04' W 127°56'3 6.7
2018-May-24 05:30N 52°01' W 127°56'3 6.6
2018-May-24 05:00N 51°58' W 127°56'3 6.5
2018-May-24 04:30N 51°54' W 127°56'4 7.1
2018-May-24 04:00N 51°51' W 127°56'3 6.9
2018-May-24 03:30N 51°47' W 127°56'3 6.8
2018-May-24 03:00N 51°44' W 127°56'3 6.8
2018-May-24 02:30N 51°41' W 127°55'4 7.0
2018-May-24 02:00N 51°37' W 127°54'29 6.8
2018-May-23 21:47N 51°09' W 127°48'2 7.8
2018-May-23 21:28N 51°07' W 127°45'4 8.1
2018-May-23 20:58N 51°04' W 127°41'4 8.1
2018-May-23 20:30N 51°01' W 127°37'4 8.1
2018-May-23 20:00N 50°59' W 127°32'4 8.3
2018-May-23 19:30N 50°56' W 127°27'4 8.3
2018-May-23 18:58N 50°53' W 127°22'85 7.6
2018-May-23 07:50N 50°15' W 125°23'5 7.4
2018-May-23 07:13N 50°10' W 125°21'2 5.9
2018-May-23 06:58N 50°09' W 125°21'2 4.1
2018-May-23 06:30N 50°07' W 125°19'2 4.7
2018-May-23 06:00N 50°05' W 125°17'2 3.5
2018-May-23 05:30N 50°04' W 125°15'2 3.9
2018-May-23 04:54N 50°02' W 125°13'3 5.1
2018-May-23 04:19N 49°59' W 125°11'2 5.1
2018-May-23 04:00N 49°58' W 125°10'3 6.4
2018-May-23 03:29N 49°55' W 125°07'4 8.2
2018-May-23 02:56N 49°52' W 125°03'3 7.9
2018-May-23 02:30N 49°49' W 124°59'4 7.2
2018-May-23 02:00N 49°47' W 124°55'107 4.1
2018-May-22 00:09N 48°35' W 122°54'1 7.1
2018-May-22 00:00N 48°35' W 122°52'4 7.0
2018-May-21 23:28N 48°32' W 122°49'  

Dump ship's entire track history